createdAt,value
2019-03-01T00:01:09.520Z,41.88
2019-03-01T00:03:38.567Z,44.05
2019-03-01T00:06:21.913Z,42.45
2019-03-01T00:09:13.497Z,39.13
2019-03-01T00:12:10.746Z,40.00
2019-03-01T00:15:00.458Z,43.87
2019-03-01T00:17:44.209Z,46.63
2019-03-01T00:20:15.716Z,44.53
2019-03-01T00:22:55.808Z,47.65
2019-03-01T00:25:53.102Z,53.13
2019-03-01T00:28:42.639Z,49.38
2019-03-01T00:31:26.826Z,49.05
2019-03-01T00:34:14.013Z,44.13
2019-03-01T00:37:06.492Z,44.65
2019-03-01T00:39:41.080Z,46.23
2019-03-01T00:42:12.777Z,50.12
2019-03-01T00:44:43.281Z,46.50
2019-03-01T00:47:11.986Z,42.75
2019-03-01T00:49:40.705Z,43.73
2019-03-01T00:52:09.420Z,43.97
2019-03-01T00:54:38.043Z,45.00
2019-03-01T00:57:07.473Z,50.23
2019-03-01T00:59:36.097Z,53.87
2019-03-01T01:02:05.056Z,52.27
2019-03-01T01:04:33.705Z,46.70
2019-03-01T01:07:02.484Z,46.83
2019-03-01T01:09:31.080Z,43.65
2019-03-01T01:11:59.723Z,44.17
2019-03-01T01:14:28.328Z,49.48
2019-03-01T01:16:57.034Z,43.68
2019-03-01T01:19:25.673Z,40.60
2019-03-01T01:21:54.267Z,42.85
2019-03-01T01:24:22.913Z,39.83
2019-03-01T01:26:51.466Z,37.40
2019-03-01T01:29:20.254Z,40.92
2019-03-01T01:31:48.880Z,41.37
2019-03-01T01:34:17.934Z,39.98
2019-03-01T01:36:46.517Z,42.73
2019-03-01T01:39:15.175Z,41.35
2019-03-01T01:41:43.774Z,47.10
2019-03-01T01:44:12.326Z,47.27
2019-03-01T01:46:40.958Z,43.48
2019-03-01T01:49:09.574Z,43.25
2019-03-01T01:51:38.182Z,44.98
2019-03-01T01:54:06.880Z,48.48
2019-03-01T01:56:35.515Z,50.60
2019-03-01T01:59:04.132Z,50.25
2019-03-01T02:01:32.729Z,51.83
2019-03-01T02:04:01.469Z,51.83
2019-03-01T02:06:30.081Z,60.05
2019-03-01T02:08:58.680Z,54.53
2019-03-01T02:11:27.401Z,54.90
2019-03-01T02:13:56.040Z,52.17
2019-03-01T02:16:24.644Z,56.98
2019-03-01T02:18:57.740Z,52.83
2019-03-01T02:21:23.620Z,54.58
2019-03-01T02:23:52.160Z,62.93
2019-03-01T02:26:20.742Z,55.60
2019-03-01T02:28:49.361Z,53.10
2019-03-01T02:31:18.251Z,49.90
2019-03-01T02:33:46.872Z,47.48
2019-03-01T02:36:15.498Z,51.07
2019-03-01T02:38:44.051Z,50.70
2019-03-01T02:41:12.653Z,55.10
2019-03-01T02:43:41.247Z,52.33
2019-03-01T02:46:09.783Z,52.45
2019-03-01T02:48:38.303Z,55.48
2019-03-01T02:51:06.889Z,53.58
2019-03-01T02:53:35.571Z,52.73
2019-03-01T02:56:04.179Z,50.48
2019-03-01T02:58:32.979Z,53.85
2019-03-01T03:01:01.603Z,53.33
2019-03-01T03:03:30.214Z,54.17
2019-03-01T03:06:15.575Z,53.20
2019-03-01T03:08:44.112Z,49.27
2019-03-01T03:11:12.690Z,50.65
2019-03-01T03:13:41.299Z,52.88
2019-03-01T03:16:09.891Z,52.98
2019-03-01T03:18:38.456Z,51.45
2019-03-01T03:21:07.057Z,50.27
2019-03-01T03:23:35.601Z,52.00
2019-03-01T03:26:04.226Z,52.62
2019-03-01T03:28:32.919Z,53.73
2019-03-01T03:31:01.510Z,55.90
2019-03-01T03:33:30.368Z,55.73
2019-03-01T03:35:59.189Z,58.52
2019-03-01T03:38:27.750Z,52.08
2019-03-01T03:40:56.366Z,55.52
2019-03-01T03:43:24.950Z,56.60
2019-03-01T03:45:53.635Z,56.25
2019-03-01T03:48:22.262Z,55.00
2019-03-01T03:50:51.459Z,55.30
2019-03-01T03:53:20.552Z,55.08
2019-03-01T03:55:49.174Z,55.20
2019-03-01T03:58:17.922Z,51.00
2019-03-01T04:00:46.571Z,57.50
2019-03-01T04:03:15.200Z,48.42
2019-03-01T04:05:43.801Z,52.15
2019-03-01T04:08:12.491Z,49.80
2019-03-01T04:10:41.189Z,49.10
2019-03-01T04:13:09.760Z,47.35
2019-03-01T04:15:38.404Z,49.13
2019-03-01T04:18:07.040Z,45.67
2019-03-01T04:20:35.859Z,46.63
2019-03-01T04:23:04.502Z,44.42
2019-03-01T04:25:33.199Z,47.63
2019-03-01T04:28:01.805Z,40.77
2019-03-01T04:30:30.755Z,42.88
2019-03-01T04:32:59.279Z,42.25
2019-03-01T04:35:27.997Z,37.23
2019-03-01T04:37:56.677Z,34.40
2019-03-01T04:40:25.287Z,34.83
2019-03-01T04:42:53.919Z,35.70
2019-03-01T04:45:22.567Z,36.58
2019-03-01T04:47:51.185Z,33.73
2019-03-01T04:50:19.814Z,31.75
2019-03-01T04:52:48.422Z,32.93
2019-03-01T04:55:22.773Z,36.05
2019-03-01T04:57:51.464Z,31.95
2019-03-01T05:00:24.791Z,34.35
2019-03-01T05:02:53.413Z,34.35
2019-03-01T05:05:21.956Z,33.53
2019-03-01T05:07:50.666Z,33.15
2019-03-01T05:10:19.319Z,30.08
2019-03-01T05:12:47.979Z,35.17
2019-03-01T05:15:19.074Z,29.87
2019-03-01T05:17:47.675Z,36.00
2019-03-01T05:20:16.313Z,34.92
2019-03-01T05:22:44.946Z,29.67
2019-03-01T05:25:13.655Z,34.00
2019-03-01T05:27:42.312Z,34.60
2019-03-01T05:30:13.617Z,33.45
2019-03-01T05:32:42.228Z,34.80
2019-03-01T05:35:10.964Z,38.15
2019-03-01T05:37:39.572Z,35.38
2019-03-01T05:40:13.718Z,36.28
2019-03-01T05:42:42.381Z,38.80
2019-03-01T05:45:22.869Z,36.42
2019-03-01T05:47:51.452Z,36.40
2019-03-01T05:50:20.062Z,39.67
2019-03-01T05:52:48.661Z,38.00
2019-03-01T05:55:17.488Z,35.28
2019-03-01T05:58:21.004Z,42.15
2019-03-01T06:00:51.172Z,35.98
2019-03-01T06:03:42.901Z,37.55
2019-03-01T06:06:17.113Z,38.35
2019-03-01T06:09:04.645Z,39.37
2019-03-01T06:11:39.028Z,42.30
2019-03-01T06:14:16.322Z,44.98
2019-03-01T06:16:47.933Z,40.10
2019-03-01T06:19:22.242Z,40.83
2019-03-01T06:22:27.191Z,43.98
2019-03-01T06:25:01.399Z,43.95
2019-03-01T06:30:51.893Z,47.73
2019-03-01T06:33:29.951Z,47.53
2019-03-01T06:36:07.261Z,51.23
2019-03-01T06:39:19.286Z,50.30
2019-03-01T06:41:57.041Z,45.38
2019-03-01T06:44:50.093Z,49.85
2019-03-01T06:47:21.642Z,52.58
2019-03-01T06:49:51.870Z,51.95
2019-03-01T06:52:22.065Z,51.15
2019-03-01T06:54:50.679Z,58.33
2019-03-01T06:57:19.432Z,53.15
2019-03-01T06:59:48.044Z,56.25
2019-03-01T07:02:21.045Z,56.30
2019-03-01T07:04:49.897Z,55.17
2019-03-01T07:07:18.447Z,56.13
2019-03-01T07:09:46.957Z,60.05
2019-03-01T07:12:15.522Z,56.37
2019-03-01T07:14:44.021Z,58.47
2019-03-01T07:17:12.548Z,61.65
2019-03-01T07:19:41.295Z,64.87
2019-03-01T07:22:09.779Z,65.30
2019-03-01T07:24:38.414Z,70.37
2019-03-01T07:27:07.001Z,68.83
2019-03-01T07:29:35.622Z,64.90
2019-03-01T07:32:04.232Z,70.75
2019-03-01T07:34:32.795Z,75.13
2019-03-01T07:37:01.376Z,75.05
2019-03-01T07:39:29.954Z,73.67
2019-03-01T07:41:58.576Z,84.50
2019-03-01T07:44:27.234Z,79.27
2019-03-01T07:46:55.834Z,75.25
2019-03-01T07:49:24.374Z,75.52
2019-03-01T07:51:53.128Z,85.53
2019-03-01T07:54:22.458Z,78.37
2019-03-01T07:56:51.135Z,80.85
2019-03-01T07:59:20.474Z,82.10
2019-03-01T08:01:49.123Z,93.17
2019-03-01T08:04:17.664Z,79.05
2019-03-01T08:06:48.739Z,89.07
2019-03-01T08:09:16.929Z,95.38
2019-03-01T08:11:45.537Z,91.60
2019-03-01T08:14:14.371Z,93.60
2019-03-01T08:16:43.051Z,95.38
2019-03-01T08:19:11.753Z,99.13
2019-03-01T08:21:42.655Z,120.63
2019-03-01T08:24:11.835Z,133.07
2019-03-01T08:26:40.700Z,130.00
2019-03-01T08:29:09.271Z,140.73
2019-03-01T08:31:37.913Z,147.83
2019-03-01T08:34:06.721Z,147.28
2019-03-01T08:36:38.679Z,139.88
2019-03-01T08:39:07.603Z,154.00
2019-03-01T08:41:36.241Z,155.63
2019-03-01T08:44:05.073Z,148.70
2019-03-01T08:46:33.720Z,151.95
2019-03-01T08:49:02.276Z,150.87
2019-03-01T08:51:30.925Z,143.02
2019-03-01T08:53:59.512Z,149.42
2019-03-01T08:56:28.054Z,153.37
2019-03-01T08:58:56.672Z,162.57
2019-03-01T09:01:26.484Z,157.18
2019-03-01T09:03:58.152Z,169.30
2019-03-01T09:06:26.761Z,165.95
2019-03-01T09:08:55.398Z,160.90
2019-03-01T09:11:23.954Z,164.30
2019-03-01T09:13:52.876Z,156.37
2019-03-01T09:16:21.523Z,163.60
2019-03-01T09:18:50.963Z,158.03
2019-03-01T09:21:19.838Z,160.55
2019-03-01T09:23:52.211Z,156.82
2019-03-01T09:26:20.044Z,146.47
2019-03-01T09:28:49.263Z,153.38
2019-03-01T09:31:17.930Z,158.05
2019-03-01T09:33:46.560Z,152.67
2019-03-01T09:36:22.718Z,156.22
2019-03-01T09:38:51.257Z,165.40
2019-03-01T09:41:19.935Z,152.05
2019-03-01T09:43:48.709Z,174.80
2019-03-01T09:46:17.357Z,163.32
2019-03-01T09:48:49.511Z,170.55
2019-03-01T09:51:16.299Z,165.30
2019-03-01T09:53:44.894Z,164.57
2019-03-01T09:56:13.804Z,171.95
2019-03-01T09:58:42.602Z,165.35
2019-03-01T10:01:16.801Z,168.85
2019-03-01T10:03:45.707Z,171.28
2019-03-01T10:06:14.288Z,167.00
2019-03-01T10:08:42.985Z,161.57
2019-03-01T10:11:12.291Z,164.07
2019-03-01T10:13:40.934Z,151.42
2019-03-01T10:16:09.718Z,155.12
2019-03-01T10:18:38.276Z,137.60
2019-03-01T10:21:06.909Z,144.25
2019-03-01T10:23:35.517Z,147.03
2019-03-01T10:26:04.458Z,120.70
2019-03-01T10:28:33.077Z,116.97
2019-03-01T10:31:01.704Z,116.82
2019-03-01T10:33:30.248Z,114.15
2019-03-01T10:35:58.803Z,117.80
2019-03-01T10:38:27.555Z,104.85
2019-03-01T10:40:56.198Z,105.03
2019-03-01T10:43:24.658Z,102.67
2019-03-01T10:45:53.272Z,91.28
2019-03-01T10:48:21.887Z,91.32
2019-03-01T10:50:50.440Z,96.47
2019-03-01T10:53:19.040Z,97.53
2019-03-01T10:55:47.607Z,91.65
2019-03-01T10:58:16.159Z,93.65
2019-03-01T11:00:44.803Z,94.15
2019-03-01T11:03:13.413Z,86.97
2019-03-01T11:05:42.026Z,92.17
2019-03-01T11:08:10.656Z,92.80
2019-03-01T11:10:40.571Z,97.45
2019-03-01T11:13:18.757Z,88.58
2019-03-01T11:15:47.354Z,92.78
2019-03-01T11:18:15.910Z,85.30
2019-03-01T11:20:44.837Z,92.82
2019-03-01T11:23:13.380Z,86.47
2019-03-01T11:25:41.977Z,97.47
2019-03-01T11:28:10.689Z,100.38
2019-03-01T11:30:39.337Z,88.17
2019-03-01T11:33:07.991Z,96.35
2019-03-01T11:35:36.667Z,101.47
2019-03-01T11:38:05.313Z,98.15
2019-03-01T11:40:35.012Z,87.40
2019-03-01T11:43:03.863Z,82.10
2019-03-01T11:45:32.512Z,78.57
2019-03-01T11:48:01.464Z,64.82
2019-03-01T11:50:30.074Z,61.68
2019-03-01T11:52:58.640Z,48.80
2019-03-01T11:55:27.255Z,43.53
2019-03-01T11:57:55.814Z,44.60
2019-03-01T12:00:27.861Z,45.63
2019-03-01T12:02:56.516Z,36.98
2019-03-01T12:05:25.327Z,42.33
2019-03-01T12:07:54.063Z,37.15
2019-03-01T12:10:25.445Z,39.80
2019-03-01T12:12:54.090Z,42.08
2019-03-01T12:15:22.791Z,39.53
2019-03-01T12:17:51.428Z,38.00
2019-03-01T12:20:22.379Z,36.93
2019-03-01T12:22:50.990Z,34.60
2019-03-01T12:25:19.739Z,28.57
2019-03-01T12:27:48.531Z,32.50
2019-03-01T12:30:26.066Z,29.35
2019-03-01T12:32:54.704Z,34.60
2019-03-01T12:35:23.701Z,35.40
2019-03-01T12:37:52.458Z,37.58
2019-03-01T12:40:23.257Z,42.30
2019-03-01T12:42:51.981Z,39.35
2019-03-01T12:45:20.660Z,43.65
2019-03-01T12:47:49.273Z,40.45
2019-03-01T12:50:17.895Z,40.63
2019-03-01T12:52:46.545Z,45.73
2019-03-01T12:55:23.972Z,37.93
2019-03-01T12:57:52.601Z,43.90
2019-03-01T13:00:36.296Z,42.60
2019-03-01T13:03:08.703Z,41.40
2019-03-01T13:05:35.243Z,36.05
2019-03-01T13:08:03.952Z,35.92
2019-03-01T13:10:40.176Z,35.00
2019-03-01T13:13:08.926Z,32.88
2019-03-01T13:15:37.535Z,34.00
2019-03-01T13:18:06.167Z,30.80
2019-03-01T13:20:37.279Z,34.53
2019-03-01T13:23:06.274Z,32.63
2019-03-01T13:25:35.014Z,33.30
2019-03-01T13:28:03.749Z,29.63
2019-03-01T13:30:35.476Z,32.93
2019-03-01T13:33:03.607Z,31.75
2019-03-01T13:35:32.505Z,32.23
2019-03-01T13:38:01.182Z,29.85
2019-03-01T13:40:29.913Z,29.42
2019-03-01T13:42:58.561Z,28.90
2019-03-01T13:45:27.165Z,31.73
2019-03-01T13:47:55.802Z,31.85
2019-03-01T13:50:24.485Z,31.02
2019-03-01T13:52:53.316Z,32.90
2019-03-01T13:55:23.847Z,39.50
2019-03-01T13:57:52.607Z,30.92
2019-03-01T14:00:22.906Z,30.17
2019-03-01T14:02:51.663Z,33.78
2019-03-01T14:05:20.487Z,33.10
2019-03-01T14:07:55.294Z,33.18
2019-03-01T14:10:22.633Z,31.10
2019-03-01T14:12:51.246Z,38.00
2019-03-01T14:15:19.907Z,28.85
2019-03-01T14:17:48.659Z,28.95
2019-03-01T14:20:20.336Z,31.52
2019-03-01T14:22:49.778Z,33.45
2019-03-01T14:25:18.552Z,27.77
2019-03-01T14:27:47.566Z,40.35
2019-03-01T14:30:25.172Z,38.88
2019-03-01T14:32:57.698Z,31.80
2019-03-01T14:35:26.852Z,38.43
2019-03-01T14:37:55.722Z,34.95
2019-03-01T14:40:24.455Z,37.17
2019-03-01T14:42:53.021Z,31.60
2019-03-01T14:45:25.604Z,35.97
2019-03-01T14:47:54.964Z,37.50
2019-03-01T14:50:24.962Z,36.75
2019-03-01T14:52:58.527Z,35.23
2019-03-01T14:55:41.694Z,35.23
2019-03-01T14:58:19.013Z,35.33
2019-03-01T15:00:51.176Z,36.17
2019-03-01T15:03:34.852Z,37.53
2019-03-01T15:06:04.067Z,34.10
2019-03-01T15:08:32.708Z,36.68
2019-03-01T15:11:04.283Z,34.25
2019-03-01T15:13:34.766Z,35.63
2019-03-01T15:16:05.928Z,33.02
2019-03-01T15:18:35.211Z,33.27
2019-03-01T15:21:04.207Z,34.83
2019-03-01T15:23:32.762Z,36.50
2019-03-01T15:26:01.380Z,37.75
2019-03-01T15:28:30.361Z,33.63
2019-03-01T15:30:59.043Z,36.35
2019-03-01T15:33:48.625Z,29.67
2019-03-01T15:36:17.945Z,28.65
2019-03-01T15:38:47.758Z,31.50
2019-03-01T15:41:16.432Z,31.33
2019-03-01T15:43:45.038Z,30.50
2019-03-01T15:46:14.352Z,26.27
2019-03-01T15:48:43.886Z,25.92
2019-03-01T15:51:12.517Z,26.07
2019-03-01T15:53:41.152Z,26.30
2019-03-01T15:56:09.762Z,22.48
2019-03-01T15:58:38.372Z,26.67
2019-03-01T16:01:11.122Z,22.17
2019-03-01T16:03:39.339Z,27.40
2019-03-01T16:06:10.429Z,24.23
2019-03-01T16:08:38.314Z,25.65
2019-03-01T16:11:09.337Z,18.87
2019-03-01T16:13:37.249Z,20.70
2019-03-01T16:16:05.857Z,15.58
2019-03-01T16:18:35.339Z,20.43
2019-03-01T16:21:05.297Z,19.07
2019-03-01T16:23:36.399Z,18.27
2019-03-01T16:26:05.011Z,18.45
2019-03-01T16:28:33.557Z,25.30
2019-03-01T16:31:02.162Z,17.30
2019-03-01T16:33:30.848Z,13.62
2019-03-01T16:36:00.970Z,15.68
2019-03-01T16:38:29.895Z,18.67
2019-03-01T16:41:01.946Z,12.78
2019-03-01T16:43:29.663Z,19.57
2019-03-01T16:45:58.291Z,25.67
2019-03-01T16:48:26.925Z,15.32
2019-03-01T16:50:55.391Z,16.62
2019-03-01T16:53:23.923Z,17.82
2019-03-01T16:55:52.653Z,13.60
2019-03-01T16:58:21.139Z,13.72
2019-03-01T17:00:50.807Z,14.23
2019-03-01T17:03:20.048Z,15.20
2019-03-01T17:05:48.690Z,12.10
2019-03-01T17:08:17.279Z,12.30
2019-03-01T17:10:45.881Z,11.45
2019-03-01T17:13:15.427Z,16.00
2019-03-01T17:15:45.540Z,10.43
2019-03-01T17:18:14.285Z,14.37
2019-03-01T17:20:43.078Z,13.77
2019-03-01T17:23:11.684Z,12.98
2019-03-01T17:25:40.395Z,12.87
2019-03-01T17:28:08.992Z,12.82
2019-03-01T17:30:37.603Z,12.07
2019-03-01T17:33:06.252Z,12.65
2019-03-01T17:35:37.833Z,17.65
2019-03-01T17:38:07.518Z,14.63
2019-03-01T17:40:35.888Z,13.38
2019-03-01T17:43:04.581Z,12.73
2019-03-01T17:45:33.179Z,11.10
2019-03-01T17:48:01.720Z,16.82
2019-03-01T17:50:30.336Z,13.15
2019-03-01T17:52:58.882Z,12.47
2019-03-01T17:55:30.345Z,9.58
2019-03-01T17:57:58.952Z,11.97
2019-03-01T18:00:37.028Z,10.93
2019-03-01T18:03:06.113Z,15.05
2019-03-01T18:05:36.938Z,8.45
2019-03-01T18:08:05.170Z,13.08
2019-03-01T18:10:33.787Z,10.95
2019-03-01T18:13:02.432Z,11.87
2019-03-01T18:15:31.062Z,12.73
2019-03-01T18:17:59.640Z,18.65
2019-03-01T18:20:28.270Z,12.58
2019-03-01T18:22:59.418Z,13.98
2019-03-01T18:25:28.051Z,16.45
2019-03-01T18:27:56.765Z,15.83
2019-03-01T18:30:30.108Z,15.95
2019-03-01T18:32:58.726Z,16.20
2019-03-01T18:35:27.643Z,13.50
2019-03-01T18:37:56.316Z,11.83
2019-03-01T18:40:24.941Z,14.00
2019-03-01T18:42:53.587Z,10.35
2019-03-01T18:45:29.480Z,20.20
2019-03-01T18:47:58.179Z,11.93
2019-03-01T18:50:31.305Z,15.45
2019-03-01T18:53:03.586Z,10.73
2019-03-01T18:55:31.914Z,12.63
2019-03-01T18:58:00.972Z,9.08
2019-03-01T19:00:38.552Z,11.70
2019-03-01T19:03:07.669Z,7.95
2019-03-01T19:05:40.034Z,11.38
2019-03-01T19:08:06.662Z,11.12
2019-03-01T19:10:36.187Z,10.48
2019-03-01T19:13:05.055Z,13.05
2019-03-01T19:15:33.669Z,7.22
2019-03-01T19:18:02.467Z,10.30
2019-03-01T19:20:41.447Z,9.40
2019-03-01T19:23:10.141Z,9.33
2019-03-01T19:25:38.750Z,8.80
2019-03-01T19:28:07.406Z,8.88
2019-03-01T19:30:36.077Z,14.20
2019-03-01T19:33:04.857Z,5.97
2019-03-01T19:35:33.491Z,9.58
2019-03-01T19:38:02.229Z,10.28
2019-03-01T19:40:30.747Z,10.23
2019-03-01T19:42:59.983Z,7.78
2019-03-01T19:45:28.657Z,10.20
2019-03-01T19:48:01.409Z,13.08
2019-03-01T19:50:29.279Z,13.85
2019-03-01T19:52:58.031Z,10.20
2019-03-01T19:55:26.981Z,11.48
2019-03-01T19:57:55.844Z,12.25
2019-03-01T20:00:29.516Z,9.70
2019-03-01T20:02:58.321Z,14.07
2019-03-01T20:05:38.228Z,10.90
2019-03-01T20:08:06.914Z,10.90
2019-03-01T20:10:36.935Z,10.35
2019-03-01T20:13:05.793Z,9.80
2019-03-01T20:15:34.763Z,11.83
2019-03-01T20:18:06.716Z,8.35
2019-03-01T20:20:34.378Z,11.50
2019-03-01T20:23:03.108Z,13.60
2019-03-01T20:25:31.804Z,12.40
2019-03-01T20:28:00.538Z,12.73
2019-03-01T20:30:30.816Z,14.37
2019-03-01T20:33:00.112Z,16.60
2019-03-01T20:35:28.832Z,15.30
2019-03-01T20:38:00.366Z,13.93
2019-03-01T20:40:28.409Z,13.35
2019-03-01T20:43:00.460Z,17.43
2019-03-01T20:45:31.434Z,14.30
2019-03-01T20:48:00.348Z,14.58
2019-03-01T20:50:29.258Z,14.20
2019-03-01T20:52:58.164Z,12.90
2019-03-01T20:55:27.118Z,11.75
2019-03-01T20:57:55.815Z,16.42
2019-03-01T21:00:27.341Z,11.68
2019-03-01T21:02:57.311Z,13.13
2019-03-01T21:05:28.959Z,10.90
2019-03-01T21:07:56.698Z,14.58
2019-03-01T21:10:27.830Z,12.43
2019-03-01T21:12:56.557Z,13.98
2019-03-01T21:15:26.509Z,13.78
2019-03-01T21:17:57.140Z,17.60
2019-03-01T21:20:25.522Z,17.15
2019-03-01T21:22:54.950Z,17.45
2019-03-01T21:25:26.845Z,20.50
2019-03-01T21:27:57.587Z,19.65
2019-03-01T21:30:30.276Z,16.50
2019-03-01T21:32:59.251Z,15.48
2019-03-01T21:35:28.111Z,14.85
2019-03-01T21:37:57.007Z,15.53
2019-03-01T21:40:25.712Z,16.07
2019-03-01T21:42:57.240Z,21.67
2019-03-01T21:45:25.150Z,18.07
2019-03-01T21:47:54.020Z,23.07
2019-03-01T21:50:22.738Z,24.12
2019-03-01T21:52:51.371Z,23.38
2019-03-01T21:55:25.000Z,23.62
2019-03-01T21:57:52.378Z,26.95
2019-03-01T22:00:29.755Z,25.55
2019-03-01T22:02:56.065Z,31.35
2019-03-01T22:05:24.725Z,27.37
2019-03-01T22:07:53.382Z,25.45
2019-03-01T22:10:22.184Z,30.43
2019-03-01T22:12:51.017Z,30.43
2019-03-01T22:15:25.391Z,28.50
2019-03-01T22:17:52.621Z,26.37
2019-03-01T22:20:22.571Z,30.17
2019-03-01T22:22:51.180Z,32.00
2019-03-01T22:25:19.927Z,28.87
2019-03-01T22:27:48.532Z,29.87
2019-03-01T22:30:31.457Z,29.50
2019-03-01T22:33:00.098Z,29.10
2019-03-01T22:35:28.916Z,28.75
2019-03-01T22:38:01.099Z,30.10
2019-03-01T22:40:29.385Z,30.40
2019-03-01T22:42:58.365Z,28.02
2019-03-01T22:45:26.974Z,28.20
2019-03-01T22:47:55.533Z,31.57
2019-03-01T22:50:24.140Z,28.40
2019-03-01T22:52:52.727Z,33.95
2019-03-01T22:55:21.504Z,30.67
2019-03-01T22:57:50.234Z,34.33
2019-03-01T23:00:50.810Z,31.77
2019-03-01T23:03:20.259Z,31.00
2019-03-01T23:05:49.028Z,33.42
2019-03-01T23:08:17.639Z,30.32
2019-03-01T23:10:46.290Z,31.30
2019-03-01T23:13:17.008Z,30.75
2019-03-01T23:15:45.475Z,32.10
2019-03-01T23:18:14.093Z,33.18
2019-03-01T23:20:42.815Z,36.90
2019-03-01T23:23:11.562Z,30.08
2019-03-01T23:25:42.888Z,30.40
2019-03-01T23:28:10.543Z,33.63
2019-03-01T23:30:39.155Z,29.18
2019-03-01T23:33:07.644Z,31.57
2019-03-01T23:35:36.219Z,31.93
2019-03-01T23:38:04.859Z,31.53
2019-03-01T23:40:35.936Z,33.42
2019-03-01T23:43:03.984Z,30.82
2019-03-01T23:45:32.603Z,28.43
2019-03-01T23:48:01.285Z,30.87
2019-03-01T23:50:31.640Z,32.90
2019-03-01T23:53:00.187Z,33.53
2019-03-01T23:55:28.776Z,31.63
2019-03-01T23:58:05.784Z,30.75
